Time;durP1;ratioP1;P1;durP2;ratioP2;P2;SDS_P1;SDS_P2;PMS_P1;PMS_P2;Temp;Humidity;BMP_temperature;BMP_pressure;BME280_temperature;BME280_humidity;BME280_pressure;Samples;Min_cycle;Max_cycle;Signal;HPM_P1;HPM_P2
2022/10/26 00:00:09;;;;;;;;;;;;;;;;;;5132854;27;19911;-59
2022/10/26 00:02:34;;;;;;;;;;;;;;;;;;5132763;27;19939;-60
2022/10/26 00:04:59;;;;;;;;;;;;;;;;;;5132643;27;19918;-59
2022/10/26 00:07:24;;;;;;;;;;;;;;;;;;5132904;27;20403;-59
2022/10/26 00:09:49;;;;;;;;;;;;;;;;;;5133069;27;19912;-59
2022/10/26 00:12:14;;;;;;;;;;;;;;;;;;5132626;27;19907;-59
2022/10/26 00:14:39;;;;;;;;;;;;;;;;;;5132442;27;19951;-59
2022/10/26 00:17:04;;;;;;;;;;;;;;;;;;5132519;27;20355;-59
2022/10/26 00:19:29;;;;;;;;;;;;;;;;;;5132656;27;19915;-59
2022/10/26 00:21:55;;;;;;;;;;;;;;;;;;5132606;27;19908;-59
2022/10/26 00:24:20;;;;;;;;;;;;;;;;;;5132504;27;20362;-59
2022/10/26 00:26:45;;;;;;;;;;;;;;;;;;5132544;27;19912;-59
2022/10/26 00:29:10;;;;;;;;;;;;;;;;;;5132540;27;19908;-59
2022/10/26 00:31:35;;;;;;;;;;;;;;;;;;5132346;27;19920;-60
2022/10/26 00:34:00;;;;;;;;;;;;;;;;;;5132087;27;19917;-60
2022/10/26 00:36:25;;;;;;;;;;;;;;;;;;5132379;27;20574;-59
2022/10/26 00:38:50;;;;;;;;;;;;;;;;;;5132842;28;19907;-60
2022/10/26 00:41:15;;;;;;;;;;;;;;;;;;5132263;28;19914;-59
2022/10/26 00:43:40;;;;;;;;;;;;;;;;;;5132549;28;20336;-59
2022/10/26 00:46:05;;;;;;;;;;;;;;;;;;5132039;28;19918;-59
2022/10/26 00:48:31;;;;;;;;;;;;;;;;;;5132360;28;19980;-59
2022/10/26 00:50:56;;;;;;;;;;;;;;;;;;5132447;28;19911;-60
2022/10/26 00:53:21;;;;;;;;;;;;;;;;;;5132232;28;19908;-60
2022/10/26 00:55:46;;;;;;;;;;;;;;;;;;5132543;28;20259;-59
2022/10/26 00:58:11;;;;;;;;;;;;;;;;;;5131714;28;20297;-59
2022/10/26 01:00:36;;;;;;;;;;;;;;;;;;5132302;28;19949;-59
2022/10/26 01:03:01;;;;;;;;;;;;;;;;;;5131920;28;19990;-59
2022/10/26 01:05:26;;;;;;;;;;;;;;;;;;5131977;28;19912;-59
2022/10/26 01:07:51;;;;;;;;;;;;;;;;;;5132046;28;20023;-61
2022/10/26 01:10:17;;;;;;;;;;;;;;;;;;5132179;28;19908;-59
2022/10/26 01:12:42;;;;;;;;;;;;;;;;;;5131930;28;20289;-59
2022/10/26 01:15:07;;;;;;;;;;;;;;;;;;5132169;28;19967;-61
2022/10/26 01:17:32;;;;;;;;;;;;;;;;;;5131326;28;19952;-59
2022/10/26 01:19:58;;;;;;;;;;;;;;;;;;5132039;28;19911;-59
2022/10/26 01:22:23;;;;;;;;;;;;;;;;;;5131710;28;19953;-59
2022/10/26 01:24:48;;;;;;;;;;;;;;;;;;5131826;28;19914;-59
2022/10/26 01:27:13;;;;;;;;;;;;;;;;;;5133093;27;20421;-59
2022/10/26 01:29:38;;;;;;;;;;;;;;;;;;5136037;27;19911;-59
2022/10/26 01:32:03;;;;;;;;;;;;;;;;;;5135559;27;19920;-59
2022/10/26 01:34:28;;;;;;;;;;;;;;;;;;5135514;27;19960;-59
2022/10/26 01:36:53;;;;;;;;;;;;;;;;;;5135551;27;20389;-59
2022/10/26 01:39:18;;;;;;;;;;;;;;;;;;5135581;27;19939;-59
2022/10/26 01:41:43;;;;;;;;;;;;;;;;;;5135789;27;19907;-59
2022/10/26 01:44:08;;;;;;;;;;;;;;;;;;5135473;27;20286;-59
2022/10/26 01:46:33;;;;;;;;;;;;;;;;;;5135337;27;19918;-58
2022/10/26 01:48:59;;;;;;;;;;;;;;;;;;5135270;27;19911;-58
2022/10/26 01:51:24;;;;;;;;;;;;;;;;;;5135352;27;20388;-59
2022/10/26 01:53:49;;;;;;;;;;;;;;;;;;5135340;27;20309;-59
2022/10/26 01:56:18;;;;;;;;;;;;;;;;;;5135213;27;19907;-59
2022/10/26 01:58:43;;;;;;;;;;;;;;;;;;5134798;27;19907;-59
2022/10/26 02:01:08;;;;;;;;;;;;;;;;;;5135287;27;19960;-59
2022/10/26 02:03:33;;;;;;;;;;;;;;;;;;5134969;27;19911;-59
2022/10/26 02:05:58;;;;;;;;;;;;;;;;;;5135082;27;19911;-60
2022/10/26 02:08:23;;;;;;;;;;;;;;;;;;5134945;27;20422;-59
2022/10/26 02:10:48;;;;;;;;;;;;;;;;;;5135170;27;19907;-58
2022/10/26 02:13:13;;;;;;;;;;;;;;;;;;5134722;27;19915;-59
2022/10/26 02:15:38;;;;;;;;;;;;;;;;;;5135039;27;19908;-60
2022/10/26 02:18:03;;;;;;;;;;;;;;;;;;5134731;27;19908;-59
2022/10/26 02:20:28;;;;;;;;;;;;;;;;;;5134793;27;19911;-58
2022/10/26 02:22:53;;;;;;;;;;;;;;;;;;5135003;27;19939;-58
2022/10/26 02:25:19;;;;;;;;;;;;;;;;;;5134302;27;19911;-58
2022/10/26 02:27:44;;;;;;;;;;;;;;;;;;5134356;27;20475;-58
2022/10/26 02:30:09;;;;;;;;;;;;;;;;;;5134779;27;20614;-59
2022/10/26 02:32:34;;;;;;;;;;;;;;;;;;5134256;27;19914;-59
2022/10/26 02:34:59;;;;;;;;;;;;;;;;;;5134686;27;19930;-59
2022/10/26 02:37:24;;;;;;;;;;;;;;;;;;5133978;27;19954;-59
2022/10/26 02:39:49;;;;;;;;;;;;;;;;;;5134418;27;19918;-58
2022/10/26 02:42:14;;;;;;;;;;;;;;;;;;5134246;27;19907;-58
2022/10/26 02:44:39;;;;;;;;;;;;;;;;;;5134498;27;20010;-58
2022/10/26 02:47:04;;;;;;;;;;;;;;;;;;5134205;27;20006;-58
2022/10/26 02:49:29;;;;;;;;;;;;;;;;;;5134059;27;19916;-58
2022/10/26 02:51:54;;;;;;;;;;;;;;;;;;5134085;27;19907;-58
2022/10/26 02:54:20;;;;;;;;;;;;;;;;;;5133980;27;19907;-58
2022/10/26 02:56:45;;;;;;;;;;;;;;;;;;5134544;27;20364;-59
2022/10/26 02:59:10;;;;;;;;;;;;;;;;;;5133760;27;19914;-59
2022/10/26 03:01:35;;;;;;;;;;;;;;;;;;5134029;27;20270;-60
2022/10/26 03:04:00;;;;;;;;;;;;;;;;;;5134033;27;19907;-58
2022/10/26 03:06:25;;;;;;;;;;;;;;;;;;5133758;27;19919;-59
2022/10/26 03:08:51;;;;;;;;;;;;;;;;;;5132115;27;19994;-60
2022/10/26 03:11:16;;;;;;;;;;;;;;;;;;5133387;27;20505;-59
2022/10/26 03:13:41;;;;;;;;;;;;;;;;;;5133832;27;19908;-58
2022/10/26 03:16:06;;;;;;;;;;;;;;;;;;5134072;27;19907;-58
2022/10/26 03:18:31;;;;;;;;;;;;;;;;;;5133115;27;20280;-58
2022/10/26 03:20:56;;;;;;;;;;;;;;;;;;5133543;27;20370;-58
2022/10/26 03:23:21;;;;;;;;;;;;;;;;;;5133391;27;19998;-58
2022/10/26 03:25:46;;;;;;;;;;;;;;;;;;5133766;27;19911;-59
2022/10/26 03:28:11;;;;;;;;;;;;;;;;;;5133304;27;20384;-58
2022/10/26 03:30:36;;;;;;;;;;;;;;;;;;5133091;27;20007;-58
2022/10/26 03:33:02;;;;;;;;;;;;;;;;;;5133268;27;19907;-58
2022/10/26 03:35:27;;;;;;;;;;;;;;;;;;5133599;27;20004;-58
2022/10/26 03:37:52;;;;;;;;;;;;;;;;;;5133258;27;20002;-58
2022/10/26 03:40:17;;;;;;;;;;;;;;;;;;5133249;27;20312;-58
2022/10/26 03:42:42;;;;;;;;;;;;;;;;;;5133373;27;19971;-59
2022/10/26 03:45:07;;;;;;;;;;;;;;;;;;5133289;27;19907;-59
2022/10/26 03:47:32;;;;;;;;;;;;;;;;;;5132800;27;19907;-59
2022/10/26 03:49:57;;;;;;;;;;;;;;;;;;5132359;27;19908;-59
2022/10/26 03:52:23;;;;;;;;;;;;;;;;;;5133177;27;19963;-59
2022/10/26 03:54:48;;;;;;;;;;;;;;;;;;5133029;27;19961;-59
2022/10/26 03:57:13;;;;;;;;;;;;;;;;;;5132959;27;19958;-59
2022/10/26 03:59:38;;;;;;;;;;;;;;;;;;5132949;27;19908;-59
2022/10/26 04:02:03;;;;;;;;;;;;;;;;;;5133053;27;20254;-59
2022/10/26 04:04:29;;;;;;;;;;;;;;;;;;5132694;27;19946;-60
2022/10/26 04:06:54;;;;;;;;;;;;;;;;;;5132681;27;19911;-60
2022/10/26 04:09:19;;;;;;;;;;;;;;;;;;5130943;27;20393;-59
2022/10/26 04:11:44;;;;;;;;;;;;;;;;;;5132857;27;19915;-59
2022/10/26 04:14:09;;;;;;;;;;;;;;;;;;5132802;27;19964;-59
2022/10/26 04:16:34;;;;;;;;;;;;;;;;;;5132577;27;19915;-59
2022/10/26 04:18:59;;;;;;;;;;;;;;;;;;5132608;27;20370;-60
2022/10/26 04:21:24;;;;;;;;;;;;;;;;;;5132866;27;19914;-58
2022/10/26 04:23:49;;;;;;;;;;;;;;;;;;5132576;27;20357;-59
2022/10/26 04:26:15;;;;;;;;;;;;;;;;;;5132417;27;19964;-58
2022/10/26 04:28:40;;;;;;;;;;;;;;;;;;5132436;27;19915;-58
2022/10/26 04:31:05;;;;;;;;;;;;;;;;;;5132470;27;20401;-58
2022/10/26 04:33:30;;;;;;;;;;;;;;;;;;5132158;27;20019;-59
2022/10/26 04:35:55;;;;;;;;;;;;;;;;;;5132292;27;19952;-58
2022/10/26 04:38:20;;;;;;;;;;;;;;;;;;5132249;27;19907;-59
2022/10/26 04:40:45;;;;;;;;;;;;;;;;;;5132485;28;20417;-59
2022/10/26 04:43:10;;;;;;;;;;;;;;;;;;5132788;28;19915;-60
2022/10/26 04:45:35;;;;;;;;;;;;;;;;;;5132204;28;19919;-59
2022/10/26 04:48:00;;;;;;;;;;;;;;;;;;5131703;28;19907;-59
2022/10/26 04:50:26;;;;;;;;;;;;;;;;;;5132336;28;20445;-60
2022/10/26 04:52:51;;;;;;;;;;;;;;;;;;5132232;28;19926;-60
2022/10/26 04:55:16;;;;;;;;;;;;;;;;;;5132383;28;19904;-59
2022/10/26 04:57:41;;;;;;;;;;;;;;;;;;5132348;28;19918;-60
2022/10/26 05:00:07;;;;;;;;;;;;;;;;;;5132263;28;20324;-59
2022/10/26 05:02:32;;;;;;;;;;;;;;;;;;5135480;27;19993;-62
2022/10/26 05:04:57;;;;;;;;;;;;;;;;;;5136532;27;19911;-60
2022/10/26 05:07:22;;;;;;;;;;;;;;;;;;5136623;27;20338;-59
2022/10/26 05:09:47;;;;;;;;;;;;;;;;;;5136250;27;19908;-59
2022/10/26 05:12:12;;;;;;;;;;;;;;;;;;5136229;27;19918;-59
2022/10/26 05:14:37;;;;;;;;;;;;;;;;;;5136206;27;19914;-59
2022/10/26 05:17:02;;;;;;;;;;;;;;;;;;5136175;27;19911;-59
2022/10/26 05:19:27;;;;;;;;;;;;;;;;;;5135771;27;20270;-60
2022/10/26 05:21:52;;;;;;;;;;;;;;;;;;5135926;27;19908;-62
2022/10/26 05:24:17;;;;;;;;;;;;;;;;;;5136010;27;19907;-60
2022/10/26 05:26:43;;;;;;;;;;;;;;;;;;5135776;27;19916;-59
2022/10/26 05:29:08;;;;;;;;;;;;;;;;;;5136006;27;19912;-60
2022/10/26 05:31:33;;;;;;;;;;;;;;;;;;5135321;27;19920;-59
2022/10/26 05:33:58;;;;;;;;;;;;;;;;;;5135765;27;19919;-59
2022/10/26 05:36:23;;;;;;;;;;;;;;;;;;5135652;27;20018;-59
2022/10/26 05:38:48;;;;;;;;;;;;;;;;;;5135165;27;20366;-59
2022/10/26 05:41:13;;;;;;;;;;;;;;;;;;5135952;27;19907;-60
2022/10/26 05:43:40;;;;;;;;;;;;;;;;;;5134618;27;20386;-59
2022/10/26 05:46:05;;;;;;;;;;;;;;;;;;5135252;27;20010;-59
2022/10/26 05:48:30;;;;;;;;;;;;;;;;;;5135105;27;19918;-59
2022/10/26 05:50:56;;;;;;;;;;;;;;;;;;5135366;27;19995;-59
2022/10/26 05:53:21;;;;;;;;;;;;;;;;;;5135190;27;20375;-60
2022/10/26 05:55:46;;;;;;;;;;;;;;;;;;5135252;27;19933;-60
2022/10/26 05:58:11;;;;;;;;;;;;;;;;;;5135495;27;19954;-59
2022/10/26 06:00:36;;;;;;;;;;;;;;;;;;5135099;27;19908;-59
2022/10/26 06:03:01;;;;;;;;;;;;;;;;;;5135091;27;19911;-60
2022/10/26 06:05:26;;;;;;;;;;;;;;;;;;5135185;27;19908;-59
2022/10/26 06:07:51;;;;;;;;;;;;;;;;;;5135018;27;19911;-59
2022/10/26 06:10:17;;;;;;;;;;;;;;;;;;5134990;27;19907;-59
2022/10/26 06:12:42;;;;;;;;;;;;;;;;;;5134057;27;19911;-59
2022/10/26 06:15:07;;;;;;;;;;;;;;;;;;5135246;27;19960;-59
2022/10/26 06:17:33;;;;;;;;;;;;;;;;;;5134518;27;20273;-60
2022/10/26 06:19:58;;;;;;;;;;;;;;;;;;5134828;27;19912;-59
2022/10/26 06:22:23;;;;;;;;;;;;;;;;;;5135060;27;19907;-58
2022/10/26 06:24:48;;;;;;;;;;;;;;;;;;5134460;27;19942;-59
2022/10/26 06:27:13;;;;;;;;;;;;;;;;;;5134651;27;19925;-59
2022/10/26 06:29:39;;;;;;;;;;;;;;;;;;5134391;27;19999;-59
2022/10/26 06:32:04;;;;;;;;;;;;;;;;;;5134580;27;19993;-59
2022/10/26 06:34:29;;;;;;;;;;;;;;;;;;5134369;27;19915;-60
2022/10/26 06:36:54;;;;;;;;;;;;;;;;;;5134698;27;20362;-59
2022/10/26 06:39:19;;;;;;;;;;;;;;;;;;5134364;27;19922;-59
2022/10/26 06:41:44;;;;;;;;;;;;;;;;;;5134348;27;19915;-59
2022/10/26 06:44:09;;;;;;;;;;;;;;;;;;5134570;27;19913;-59
2022/10/26 06:46:34;;;;;;;;;;;;;;;;;;5134112;27;19917;-59
2022/10/26 06:48:59;;;;;;;;;;;;;;;;;;5133883;27;19919;-59
2022/10/26 06:51:25;;;;;;;;;;;;;;;;;;5134702;27;19910;-59
2022/10/26 06:53:50;;;;;;;;;;;;;;;;;;5134040;27;19929;-59
2022/10/26 06:56:15;;;;;;;;;;;;;;;;;;5134205;27;19911;-60
2022/10/26 06:58:40;;;;;;;;;;;;;;;;;;5134144;27;19907;-59
2022/10/26 07:01:05;;;;;;;;;;;;;;;;;;5134018;27;19908;-59
2022/10/26 07:03:30;;;;;;;;;;;;;;;;;;5133661;27;19949;-60
2022/10/26 07:05:55;;;;;;;;;;;;;;;;;;5133868;27;19911;-58
2022/10/26 07:08:20;;;;;;;;;;;;;;;;;;5133973;27;19914;-59
2022/10/26 07:10:45;;;;;;;;;;;;;;;;;;5133483;27;20308;-59
2022/10/26 07:13:10;;;;;;;;;;;;;;;;;;5133829;27;19907;-59
2022/10/26 07:15:35;;;;;;;;;;;;;;;;;;5133725;27;19907;-58
2022/10/26 07:18:02;;;;;;;;;;;;;;;;;;5133944;27;19914;-59
2022/10/26 07:20:27;;;;;;;;;;;;;;;;;;5133840;27;19907;-59
2022/10/26 07:22:52;;;;;;;;;;;;;;;;;;5133378;27;19918;-59
2022/10/26 07:25:17;;;;;;;;;;;;;;;;;;5127045;27;19914;-58
2022/10/26 07:27:42;;;;;;;;;;;;;;;;;;5133397;27;19907;-58
2022/10/26 07:30:07;;;;;;;;;;;;;;;;;;5133217;27;19907;-59
2022/10/26 07:32:32;;;;;;;;;;;;;;;;;;5133484;27;19911;-59
2022/10/26 07:34:57;;;;;;;;;;;;;;;;;;5133169;27;19911;-58
2022/10/26 07:37:22;;;;;;;;;;;;;;;;;;5133542;27;19938;-58
2022/10/26 07:39:47;;;;;;;;;;;;;;;;;;5132580;27;19911;-58
2022/10/26 07:42:12;;;;;;;;;;;;;;;;;;5133307;27;20391;-58
2022/10/26 07:44:38;;;;;;;;;;;;;;;;;;5133095;27;19908;-57
2022/10/26 07:47:03;;;;;;;;;;;;;;;;;;5133265;27;19915;-58
2022/10/26 07:49:28;;;;;;;;;;;;;;;;;;5132773;27;19969;-59
2022/10/26 07:51:53;;;;;;;;;;;;;;;;;;5133142;27;19918;-59
2022/10/26 07:54:18;;;;;;;;;;;;;;;;;;5133060;27;19912;-58
2022/10/26 07:56:43;;;;;;;;;;;;;;;;;;5132928;27;19915;-59
2022/10/26 07:59:08;;;;;;;;;;;;;;;;;;5132776;27;20273;-58
2022/10/26 08:01:33;;;;;;;;;;;;;;;;;;5132700;27;19995;-59
2022/10/26 08:03:58;;;;;;;;;;;;;;;;;;5132721;27;19911;-58
2022/10/26 08:06:23;;;;;;;;;;;;;;;;;;5132604;27;19912;-58
2022/10/26 08:08:48;;;;;;;;;;;;;;;;;;5132848;27;19914;-59
2022/10/26 08:11:14;;;;;;;;;;;;;;;;;;5132776;27;19911;-58
2022/10/26 08:13:39;;;;;;;;;;;;;;;;;;5132728;27;19965;-58
2022/10/26 08:16:04;;;;;;;;;;;;;;;;;;5132932;27;19908;-58
2022/10/26 08:18:29;;;;;;;;;;;;;;;;;;5132508;27;19911;-59
2022/10/26 08:20:54;;;;;;;;;;;;;;;;;;5131994;27;19907;-58
2022/10/26 08:23:19;;;;;;;;;;;;;;;;;;5132797;27;19911;-58
2022/10/26 08:25:44;;;;;;;;;;;;;;;;;;5132397;27;19915;-58
2022/10/26 08:28:09;;;;;;;;;;;;;;;;;;5132479;27;19911;-58
2022/10/26 08:30:34;;;;;;;;;;;;;;;;;;5132382;27;20285;-58
2022/10/26 08:32:59;;;;;;;;;;;;;;;;;;5132286;27;19969;-58
2022/10/26 08:35:24;;;;;;;;;;;;;;;;;;5131748;27;19911;-58
2022/10/26 08:37:50;;;;;;;;;;;;;;;;;;5132028;27;19960;-59
2022/10/26 08:40:15;;;;;;;;;;;;;;;;;;5132362;27;20278;-60
2022/10/26 08:42:40;;;;;;;;;;;;;;;;;;5132243;28;19912;-60
2022/10/26 08:45:05;;;;;;;;;;;;;;;;;;5132574;28;19943;-59
2022/10/26 08:47:30;;;;;;;;;;;;;;;;;;5132016;28;19934;-60
2022/10/26 08:49:55;;;;;;;;;;;;;;;;;;5132023;28;19922;-60
2022/10/26 08:52:20;;;;;;;;;;;;;;;;;;5132307;28;19946;-60
2022/10/26 08:54:45;;;;;;;;;;;;;;;;;;5132294;28;20377;-59
2022/10/26 08:57:10;;;;;;;;;;;;;;;;;;5132334;28;19908;-60
2022/10/26 08:59:35;;;;;;;;;;;;;;;;;;5132280;28;19952;-60
2022/10/26 09:02:01;;;;;;;;;;;;;;;;;;5132405;28;19946;-60
2022/10/26 09:04:26;;;;;;;;;;;;;;;;;;5131773;28;19918;-60
2022/10/26 09:06:53;;;;;;;;;;;;;;;;;;5132119;28;19915;-60
2022/10/26 09:09:19;;;;;;;;;;;;;;;;;;5132384;28;19908;-60
2022/10/26 09:11:44;;;;;;;;;;;;;;;;;;5131538;28;19914;-59
2022/10/26 09:14:09;;;;;;;;;;;;;;;;;;5132052;28;20385;-60
2022/10/26 09:16:34;;;;;;;;;;;;;;;;;;5132434;28;19907;-59
2022/10/26 09:19:00;;;;;;;;;;;;;;;;;;5131755;28;19911;-59
2022/10/26 09:21:25;;;;;;;;;;;;;;;;;;5131899;28;19960;-60
2022/10/26 09:23:50;;;;;;;;;;;;;;;;;;5131652;28;19914;-60
2022/10/26 09:26:15;;;;;;;;;;;;;;;;;;5131998;28;19994;-60
2022/10/26 09:28:40;;;;;;;;;;;;;;;;;;5131710;28;19907;-60
2022/10/26 09:31:06;;;;;;;;;;;;;;;;;;5131670;28;19946;-59
2022/10/26 09:33:31;;;;;;;;;;;;;;;;;;5131679;28;19983;-59
2022/10/26 09:35:56;;;;;;;;;;;;;;;;;;5131689;28;19911;-59
2022/10/26 09:38:21;;;;;;;;;;;;;;;;;;5131976;28;19908;-60
2022/10/26 09:40:46;;;;;;;;;;;;;;;;;;5131792;28;19915;-60
2022/10/26 09:43:11;;;;;;;;;;;;;;;;;;5131900;28;19914;-60
2022/10/26 09:45:36;;;;;;;;;;;;;;;;;;5131844;28;19914;-59
2022/10/26 09:48:01;;;;;;;;;;;;;;;;;;5132254;27;19911;-59
2022/10/26 09:50:26;;;;;;;;;;;;;;;;;;5134826;27;20615;-58
2022/10/26 09:52:51;;;;;;;;;;;;;;;;;;5134936;27;19907;-58
2022/10/26 09:55:16;;;;;;;;;;;;;;;;;;5135266;27;19961;-59
2022/10/26 09:57:42;;;;;;;;;;;;;;;;;;5135547;27;19995;-58
2022/10/26 10:00:07;;;;;;;;;;;;;;;;;;5135027;27;19907;-59
2022/10/26 10:02:32;;;;;;;;;;;;;;;;;;5134908;27;20339;-58
2022/10/26 10:04:57;;;;;;;;;;;;;;;;;;5134912;27;19907;-59
2022/10/26 10:07:22;;;;;;;;;;;;;;;;;;5135063;27;19962;-60
2022/10/26 10:09:47;;;;;;;;;;;;;;;;;;5134652;27;20365;-58
2022/10/26 10:12:12;;;;;;;;;;;;;;;;;;5134913;27;19908;-58
2022/10/26 10:14:38;;;;;;;;;;;;;;;;;;5135104;27;19908;-58
2022/10/26 10:17:03;;;;;;;;;;;;;;;;;;5134743;27;19960;-59
2022/10/26 10:19:28;;;;;;;;;;;;;;;;;;5134649;27;19914;-58
2022/10/26 10:21:53;;;;;;;;;;;;;;;;;;5134386;27;20290;-58
2022/10/26 10:24:18;;;;;;;;;;;;;;;;;;5134863;27;19930;-58
2022/10/26 10:26:43;;;;;;;;;;;;;;;;;;5134708;27;19911;-59
2022/10/26 10:29:08;;;;;;;;;;;;;;;;;;5134805;27;19919;-58
2022/10/26 10:31:33;;;;;;;;;;;;;;;;;;5134451;27;19926;-58
2022/10/26 10:33:59;;;;;;;;;;;;;;;;;;5134306;27;19915;-58
2022/10/26 10:36:24;;;;;;;;;;;;;;;;;;5134680;27;19907;-59
2022/10/26 10:38:49;;;;;;;;;;;;;;;;;;5134349;27;19907;-59
2022/10/26 10:41:14;;;;;;;;;;;;;;;;;;5134609;27;19907;-58
2022/10/26 10:43:39;;;;;;;;;;;;;;;;;;5134310;27;19936;-59
2022/10/26 10:46:04;;;;;;;;;;;;;;;;;;5134296;27;20334;-59
2022/10/26 10:48:29;;;;;;;;;;;;;;;;;;5133925;27;19911;-59
2022/10/26 10:50:54;;;;;;;;;;;;;;;;;;5134009;27;19907;-59
2022/10/26 10:53:21;;;;;;;;;;;;;;;;;;5134039;27;19961;-59
2022/10/26 10:55:46;;;;;;;;;;;;;;;;;;5134139;27;19967;-59
2022/10/26 10:58:11;;;;;;;;;;;;;;;;;;5134078;27;19908;-58
2022/10/26 11:00:36;;;;;;;;;;;;;;;;;;5133915;27;19907;-59
2022/10/26 11:03:02;;;;;;;;;;;;;;;;;;5133839;27;19913;-59
2022/10/26 11:05:27;;;;;;;;;;;;;;;;;;5134187;27;19918;-59
2022/10/26 11:07:52;;;;;;;;;;;;;;;;;;5133780;27;19911;-59
2022/10/26 11:10:17;;;;;;;;;;;;;;;;;;5133892;27;20378;-56
2022/10/26 11:12:42;;;;;;;;;;;;;;;;;;5133408;27;20390;-57
2022/10/26 11:15:07;;;;;;;;;;;;;;;;;;5133503;27;19925;-58
2022/10/26 11:17:32;;;;;;;;;;;;;;;;;;5133823;27;19907;-59
2022/10/26 11:19:57;;;;;;;;;;;;;;;;;;5133479;27;19972;-58
2022/10/26 11:22:22;;;;;;;;;;;;;;;;;;5133425;27;19911;-58
2022/10/26 11:24:47;;;;;;;;;;;;;;;;;;5133525;27;19911;-58
2022/10/26 11:27:12;;;;;;;;;;;;;;;;;;5133870;27;19998;-58
2022/10/26 11:29:37;;;;;;;;;;;;;;;;;;5133584;27;19952;-58
2022/10/26 11:32:02;;;;;;;;;;;;;;;;;;5132477;27;20237;-58
2022/10/26 11:34:28;;;;;;;;;;;;;;;;;;5133090;27;20411;-58
2022/10/26 11:36:53;;;;;;;;;;;;;;;;;;5133426;27;19919;-57
2022/10/26 11:39:19;;;;;;;;;;;;;;;;;;5133413;27;20008;-57
2022/10/26 11:41:44;;;;;;;;;;;;;;;;;;5133215;27;20455;-58
2022/10/26 11:44:09;;;;;;;;;;;;;;;;;;5133015;27;20587;-58
2022/10/26 11:46:34;;;;;;;;;;;;;;;;;;5133245;27;19911;-58
2022/10/26 11:48:59;;;;;;;;;;;;;;;;;;5133246;27;19911;-57
2022/10/26 11:51:24;;;;;;;;;;;;;;;;;;5132986;27;19930;-59
2022/10/26 11:53:49;;;;;;;;;;;;;;;;;;5133089;27;19951;-57
2022/10/26 11:56:15;;;;;;;;;;;;;;;;;;5132870;27;19907;-60
2022/10/26 11:58:40;;;;;;;;;;;;;;;;;;5133223;27;19907;-60
2022/10/26 12:01:05;;;;;;;;;;;;;;;;;;5132755;27;19969;-57
2022/10/26 12:03:30;;;;;;;;;;;;;;;;;;5132452;27;19911;-58
2022/10/26 12:05:55;;;;;;;;;;;;;;;;;;5132697;27;19961;-58
2022/10/26 12:08:22;;;;;;;;;;;;;;;;;;5132923;27;20365;-59
2022/10/26 12:10:47;;;;;;;;;;;;;;;;;;5132385;27;19985;-58
2022/10/26 12:13:12;;;;;;;;;;;;;;;;;;5132620;27;19923;-58
2022/10/26 12:15:37;;;;;;;;;;;;;;;;;;5133040;27;19903;-58
2022/10/26 12:18:02;;;;;;;;;;;;;;;;;;5132583;27;19915;-58
2022/10/26 12:20:27;;;;;;;;;;;;;;;;;;5132615;27;19915;-59
2022/10/26 12:22:52;;;;;;;;;;;;;;;;;;5132368;27;19904;-58
2022/10/26 12:25:17;;;;;;;;;;;;;;;;;;5132764;27;20269;-58
2022/10/26 12:27:43;;;;;;;;;;;;;;;;;;5132725;27;19911;-58
2022/10/26 12:30:08;;;;;;;;;;;;;;;;;;5132230;27;20040;-58
2022/10/26 12:32:33;;;;;;;;;;;;;;;;;;5132124;27;19911;-59
2022/10/26 12:34:58;;;;;;;;;;;;;;;;;;5131973;27;19914;-58
2022/10/26 12:37:23;;;;;;;;;;;;;;;;;;5132168;27;19908;-58
2022/10/26 12:39:48;;;;;;;;;;;;;;;;;;5132380;27;20350;-58
2022/10/26 12:42:13;;;;;;;;;;;;;;;;;;5132286;27;20010;-58
2022/10/26 12:44:39;;;;;;;;;;;;;;;;;;5132426;28;19908;-59
2022/10/26 12:47:05;;;;;;;;;;;;;;;;;;5131938;28;20007;-58
2022/10/26 12:49:30;;;;;;;;;;;;;;;;;;5131943;28;20002;-59
2022/10/26 12:51:55;;;;;;;;;;;;;;;;;;5132052;28;19920;-58
2022/10/26 12:54:20;;;;;;;;;;;;;;;;;;5132442;28;19908;-59
2022/10/26 12:56:45;;;;;;;;;;;;;;;;;;5132228;28;19907;-58
2022/10/26 12:59:11;;;;;;;;;;;;;;;;;;5131829;28;19911;-58
2022/10/26 13:01:36;;;;;;;;;;;;;;;;;;5131726;28;19958;-59
2022/10/26 13:04:01;;;;;;;;;;;;;;;;;;5132160;28;19958;-58
2022/10/26 13:06:27;;;;;;;;;;;;;;;;;;5131706;28;19964;-58
2022/10/26 13:08:52;;;;;;;;;;;;;;;;;;5132120;28;19912;-59
2022/10/26 13:11:17;;;;;;;;;;;;;;;;;;5131989;28;19919;-58
2022/10/26 13:13:42;;;;;;;;;;;;;;;;;;5132105;28;20010;-59
2022/10/26 13:16:07;;;;;;;;;;;;;;;;;;5131880;28;19919;-59
2022/10/26 13:18:32;;;;;;;;;;;;;;;;;;5131802;28;19942;-58
2022/10/26 13:20:58;;;;;;;;;;;;;;;;;;5131684;28;19907;-58
2022/10/26 13:23:23;;;;;;;;;;;;;;;;;;5134494;27;19911;-59
2022/10/26 13:25:48;;;;;;;;;;;;;;;;;;5135961;27;19922;-58
2022/10/26 13:28:13;;;;;;;;;;;;;;;;;;5135707;27;19908;-61
2022/10/26 13:30:40;;;;;;;;;;;;;;;;;;5135764;27;20366;-59
2022/10/26 13:33:05;;;;;;;;;;;;;;;;;;5135364;27;19908;-59
2022/10/26 13:35:30;;;;;;;;;;;;;;;;;;5135728;27;19908;-59
2022/10/26 13:37:55;;;;;;;;;;;;;;;;;;5135903;27;19914;-59
2022/10/26 13:40:20;;;;;;;;;;;;;;;;;;5135549;27;19908;-59
2022/10/26 13:42:45;;;;;;;;;;;;;;;;;;5134796;27;20303;-59
2022/10/26 13:45:10;;;;;;;;;;;;;;;;;;5135319;27;19912;-59
2022/10/26 13:47:35;;;;;;;;;;;;;;;;;;5135363;27;19918;-59
2022/10/26 13:50:02;;;;;;;;;;;;;;;;;;5135359;27;19930;-59
2022/10/26 13:52:27;;;;;;;;;;;;;;;;;;5135049;27;19911;-59
2022/10/26 13:54:52;;;;;;;;;;;;;;;;;;5135714;27;19981;-59
2022/10/26 13:57:17;;;;;;;;;;;;;;;;;;5135485;27;19907;-59
2022/10/26 13:59:42;;;;;;;;;;;;;;;;;;5135234;27;20002;-59
2022/10/26 14:02:07;;;;;;;;;;;;;;;;;;5134783;27;19907;-59
2022/10/26 14:04:32;;;;;;;;;;;;;;;;;;5135123;27;19911;-59
2022/10/26 14:06:57;;;;;;;;;;;;;;;;;;5135440;27;19918;-59
2022/10/26 14:09:22;;;;;;;;;;;;;;;;;;5135035;27;19907;-59
2022/10/26 14:11:47;;;;;;;;;;;;;;;;;;5134719;27;20037;-59
2022/10/26 14:14:13;;;;;;;;;;;;;;;;;;5135107;27;20273;-59
2022/10/26 14:16:38;;;;;;;;;;;;;;;;;;5135031;27;20002;-59
2022/10/26 14:19:03;;;;;;;;;;;;;;;;;;5134923;27;19912;-59
2022/10/26 14:21:28;;;;;;;;;;;;;;;;;;5134869;27;19951;-60
2022/10/26 14:23:54;;;;;;;;;;;;;;;;;;5134681;27;19907;-59
2022/10/26 14:26:20;;;;;;;;;;;;;;;;;;5134543;27;19915;-59
2022/10/26 14:28:45;;;;;;;;;;;;;;;;;;5134755;27;19914;-59
2022/10/26 14:31:11;;;;;;;;;;;;;;;;;;5134298;27;20440;-59
2022/10/26 14:33:36;;;;;;;;;;;;;;;;;;5133684;27;19908;-59
2022/10/26 14:36:01;;;;;;;;;;;;;;;;;;5134636;27;19904;-59
2022/10/26 14:38:26;;;;;;;;;;;;;;;;;;5134619;27;19911;-59
2022/10/26 14:40:51;;;;;;;;;;;;;;;;;;5134566;27;20365;-58
2022/10/26 14:43:16;;;;;;;;;;;;;;;;;;5134526;27;19939;-59
2022/10/26 14:45:41;;;;;;;;;;;;;;;;;;5134374;27;19912;-59
2022/10/26 14:48:06;;;;;;;;;;;;;;;;;;5134210;27;19957;-59
2022/10/26 14:50:33;;;;;;;;;;;;;;;;;;5134410;27;19908;-58
2022/10/26 14:52:58;;;;;;;;;;;;;;;;;;5131750;27;19908;-59
2022/10/26 14:55:23;;;;;;;;;;;;;;;;;;5133920;27;19932;-59
2022/10/26 14:57:48;;;;;;;;;;;;;;;;;;5134102;27;19907;-58
2022/10/26 15:00:14;;;;;;;;;;;;;;;;;;5133740;27;19930;-59
2022/10/26 15:02:39;;;;;;;;;;;;;;;;;;5133570;27;19950;-59
2022/10/26 15:05:04;;;;;;;;;;;;;;;;;;5132666;27;19916;-59
2022/10/26 15:07:29;;;;;;;;;;;;;;;;;;5133623;27;19911;-58
2022/10/26 15:09:54;;;;;;;;;;;;;;;;;;5134063;27;19914;-58
2022/10/26 15:12:19;;;;;;;;;;;;;;;;;;5133454;27;19918;-58
2022/10/26 15:14:44;;;;;;;;;;;;;;;;;;5134159;27;19994;-58
2022/10/26 15:17:10;;;;;;;;;;;;;;;;;;5133424;27;20007;-58
2022/10/26 15:19:35;;;;;;;;;;;;;;;;;;5133584;27;20342;-59
2022/10/26 15:22:00;;;;;;;;;;;;;;;;;;5133575;27;19916;-58
2022/10/26 15:24:25;;;;;;;;;;;;;;;;;;5133278;27;19977;-58
2022/10/26 15:26:50;;;;;;;;;;;;;;;;;;5133536;27;19976;-58
2022/10/26 15:29:15;;;;;;;;;;;;;;;;;;5133538;27;20316;-57
2022/10/26 15:31:40;;;;;;;;;;;;;;;;;;5133286;27;20017;-58
2022/10/26 15:34:05;;;;;;;;;;;;;;;;;;5131688;27;19911;-59
2022/10/26 15:36:30;;;;;;;;;;;;;;;;;;5133176;27;19911;-59
2022/10/26 15:38:55;;;;;;;;;;;;;;;;;;5133431;27;20342;-58
2022/10/26 15:41:20;;;;;;;;;;;;;;;;;;5133273;27;19915;-59
2022/10/26 15:43:45;;;;;;;;;;;;;;;;;;5133082;27;19914;-59
2022/10/26 15:46:10;;;;;;;;;;;;;;;;;;5132150;27;19911;-58
2022/10/26 15:48:36;;;;;;;;;;;;;;;;;;5133107;27;19915;-59
2022/10/26 15:51:01;;;;;;;;;;;;;;;;;;5132824;27;20028;-60
2022/10/26 15:53:29;;;;;;;;;;;;;;;;;;5132853;27;19908;-59
2022/10/26 15:55:54;;;;;;;;;;;;;;;;;;5133220;27;20330;-60
2022/10/26 15:58:20;;;;;;;;;;;;;;;;;;5132957;27;19982;-59
2022/10/26 16:00:45;;;;;;;;;;;;;;;;;;5133005;27;19923;-60
2022/10/26 16:03:10;;;;;;;;;;;;;;;;;;5132337;27;19907;-59
2022/10/26 16:05:35;;;;;;;;;;;;;;;;;;5131025;27;19907;-58
2022/10/26 16:08:00;;;;;;;;;;;;;;;;;;5133080;27;19911;-59
2022/10/26 16:10:25;;;;;;;;;;;;;;;;;;5132795;27;19908;-59
2022/10/26 16:12:50;;;;;;;;;;;;;;;;;;5132142;27;20331;-59
2022/10/26 16:15:16;;;;;;;;;;;;;;;;;;5132962;27;20315;-58
2022/10/26 16:17:41;;;;;;;;;;;;;;;;;;5132516;27;20374;-59
2022/10/26 16:20:06;;;;;;;;;;;;;;;;;;5132649;27;20376;-59
2022/10/26 16:22:31;;;;;;;;;;;;;;;;;;5132291;27;19908;-59
2022/10/26 16:24:56;;;;;;;;;;;;;;;;;;5130026;27;19907;-58
2022/10/26 16:27:21;;;;;;;;;;;;;;;;;;5132434;27;19998;-59
2022/10/26 16:29:47;;;;;;;;;;;;;;;;;;5132353;27;19974;-58